Time;durP1;ratioP1;P1;durP2;ratioP2;P2;SDS_P1;SDS_P2;PMS_P1;PMS_P2;Temp;Humidity;BMP_temperature;BMP_pressure;BME280_temperature;BME280_humidity;BME280_pressure;Samples;Min_cycle;Max_cycle;Signal;HPM_P1;HPM_P2
2021/03/28 00:01:06;;;;;;;6.33;2.13;;;8.70;98.10;;;;;;5001942;28;20987;-66
2021/03/28 00:03:39;;;;;;;4.37;2.27;;;8.70;98.20;;;;;;5002588;28;20448;-65
2021/03/28 00:06:17;;;;;;;3.67;2.30;;;8.60;98.50;;;;;;5001193;28;20503;-66
2021/03/28 00:08:46;;;;;;;5.50;2.35;;;8.50;98.70;;;;;;4999064;28;20456;-66
2021/03/28 00:11:17;;;;;;;7.57;2.33;;;8.50;98.80;;;;;;4999520;28;20295;-66
2021/03/28 00:14:01;;;;;;;6.97;2.57;;;8.50;99.00;;;;;;4997109;28;20583;-66
2021/03/28 00:16:31;;;;;;;6.57;2.73;;;8.40;99.50;;;;;;4996916;28;20496;-65
2021/03/28 00:19:03;;;;;;;3.10;2.00;;;8.40;99.70;;;;;;4997089;28;20458;-65
2021/03/28 00:21:33;;;;;;;5.73;2.03;;;8.40;99.80;;;;;;4996557;28;21034;-65
2021/03/28 00:24:15;;;;;;;6.70;2.60;;;8.30;99.90;;;;;;4996080;28;20800;-66
2021/03/28 00:26:45;;;;;;;4.20;2.50;;;8.30;99.90;;;;;;4996526;28;20445;-65
2021/03/28 00:29:14;;;;;;;8.20;2.33;;;8.30;99.90;;;;;;4996232;28;20512;-66
2021/03/28 00:31:55;;;;;;;13.23;6.80;;;8.20;99.90;;;;;;4996234;28;20477;-66
2021/03/28 00:34:25;;;;;;;9.50;4.83;;;8.20;99.90;;;;;;4996123;28;20438;-66
2021/03/28 00:36:56;;;;;;;5.27;3.57;;;8.20;99.90;;;;;;4996097;28;20544;-66
2021/03/28 00:39:42;;;;;;;4.63;2.70;;;8.10;99.90;;;;;;4996219;28;20484;-65
2021/03/28 00:42:19;;;;;;;6.83;2.37;;;8.10;99.90;;;;;;4995814;28;20462;-65
2021/03/28 00:44:50;;;;;;;6.57;2.87;;;8.00;99.90;;;;;;4996175;28;20545;-65
2021/03/28 00:47:24;;;;;;;4.57;2.03;;;8.00;99.90;;;;;;4995713;28;21028;-66
2021/03/28 00:50:05;;;;;;;4.67;1.80;;;7.90;99.90;;;;;;4995214;28;20541;-65
2021/03/28 00:52:34;;;;;;;3.60;2.20;;;7.90;99.90;;;;;;4995823;28;20437;-65
2021/03/28 00:55:14;;;;;;;4.97;2.70;;;7.80;99.90;;;;;;4996118;28;20808;-65
2021/03/28 00:57:43;;;;;;;3.37;1.90;;;7.80;99.90;;;;;;4996560;28;20441;-65
2021/03/28 01:00:56;;;;;;;4.87;2.07;;;7.90;99.90;;;;;;5000363;28;20501;-65
2021/03/28 01:03:33;;;;;;;2.73;1.70;;;7.80;99.90;;;;;;4970498;28;20501;-65
2021/03/28 01:06:12;;;;;;;5.20;2.10;;;7.70;99.90;;;;;;4995694;28;20476;-64
2021/03/28 01:08:51;;;;;;;2.17;1.80;;;7.70;99.90;;;;;;4995458;28;20557;-64
2021/03/28 01:11:38;;;;;;;5.60;2.73;;;7.70;99.90;;;;;;4994933;28;20481;-64
2021/03/28 01:14:21;;;;;;;5.50;2.00;;;7.60;99.90;;;;;;4995708;28;20889;-65
2021/03/28 01:17:27;;;;;;;3.40;2.33;;;7.60;99.90;;;;;;4994937;28;20918;-65
2021/03/28 01:20:32;;;;;;;3.27;2.03;;;7.50;99.90;;;;;;4995328;28;20442;-64
2021/03/28 01:23:08;;;;;;;4.50;2.40;;;7.50;99.90;;;;;;4995330;28;20441;-65
2021/03/28 01:26:09;;;;;;;3.50;1.90;;;7.50;99.90;;;;;;4995057;28;20488;-65
2021/03/28 01:28:47;;;;;;;6.50;1.97;;;7.50;99.90;;;;;;4995369;28;20460;-66
2021/03/28 01:31:26;;;;;;;6.40;2.20;;;7.50;99.90;;;;;;4995256;28;20474;-64
2021/03/28 01:33:56;;;;;;;5.13;2.20;;;7.50;99.90;;;;;;4994689;28;20916;-65
2021/03/28 01:36:29;;;;;;;5.20;2.47;;;7.40;99.90;;;;;;4994544;28;20445;-65
2021/03/28 01:39:06;;;;;;;4.73;2.20;;;7.50;99.90;;;;;;4994892;28;20434;-65
2021/03/28 01:41:36;;;;;;;5.10;2.00;;;7.50;99.90;;;;;;4994789;28;20649;-64
2021/03/28 01:44:10;;;;;;;9.30;2.50;;;7.40;99.90;;;;;;4994262;28;20458;-64
2021/03/28 01:46:50;;;;;;;4.30;1.80;;;7.40;99.90;;;;;;4994652;28;20443;-65
2021/03/28 01:49:27;;;;;;;6.30;2.40;;;7.40;99.90;;;;;;4994743;28;20453;-65
2021/03/28 01:52:04;;;;;;;3.03;1.87;;;7.30;99.90;;;;;;4994291;28;20492;-65
2021/03/28 01:54:40;;;;;;;8.40;2.50;;;7.40;99.90;;;;;;4994322;28;20908;-65
2021/03/28 01:57:13;;;;;;;4.90;1.90;;;7.40;99.90;;;;;;4994710;28;20449;-65
2021/03/28 01:59:56;;;;;;;4.23;1.77;;;7.50;99.90;;;;;;4994551;28;20473;-65
2021/03/28 02:02:42;;;;;;;6.93;2.33;;;7.50;99.90;;;;;;4995119;28;20823;-65
2021/03/28 02:05:19;;;;;;;4.37;2.20;;;7.50;99.90;;;;;;4995202;28;20433;-65
2021/03/28 02:07:55;;;;;;;3.40;1.90;;;7.50;99.90;;;;;;4994458;28;20434;-65
2021/03/28 02:10:45;;;;;;;5.13;1.60;;;7.60;99.90;;;;;;4993788;28;20484;-65
2021/03/28 02:13:21;;;;;;;7.00;2.30;;;7.60;99.90;;;;;;4994160;28;20438;-65
2021/03/28 02:16:03;;;;;;;5.73;2.67;;;7.60;99.90;;;;;;4993788;28;20741;-65
2021/03/28 02:18:51;;;;;;;4.60;2.03;;;7.60;99.90;;;;;;4994224;28;20477;-65
2021/03/28 02:21:27;;;;;;;4.90;1.90;;;7.60;99.90;;;;;;4994022;28;20482;-65
2021/03/28 02:24:00;;;;;;;6.20;2.23;;;7.70;99.90;;;;;;4994349;28;20464;-66
2021/03/28 02:26:34;;;;;;;6.80;2.07;;;7.70;99.90;;;;;;4993017;28;20521;-65
2021/03/28 02:29:09;;;;;;;5.57;1.83;;;7.60;99.90;;;;;;4993962;28;20908;-65
2021/03/28 02:31:57;;;;;;;5.53;2.83;;;7.60;99.90;;;;;;4999108;28;20473;-65
2021/03/28 02:34:30;;;;;;;3.30;2.27;;;7.60;99.90;;;;;;4993596;28;20501;-65
2021/03/28 02:37:12;;;;;;;4.30;1.77;;;7.70;99.90;;;;;;4994017;28;20438;-65
2021/03/28 02:39:45;;;;;;;4.00;2.30;;;7.70;99.90;;;;;;4994048;28;20445;-65
2021/03/28 02:42:20;;;;;;;4.03;2.40;;;7.70;99.90;;;;;;4993995;28;20534;-65
2021/03/28 02:44:58;;;;;;;3.60;2.30;;;7.70;99.90;;;;;;4993977;28;20444;-65
2021/03/28 02:47:53;;;;;;;4.53;2.30;;;7.80;99.90;;;;;;4994114;28;20446;-65
2021/03/28 02:50:51;;;;;;;4.13;1.93;;;7.80;99.90;;;;;;4994142;28;20888;-65
2021/03/28 02:53:28;;;;;;;6.87;2.70;;;7.90;99.90;;;;;;4994322;28;20438;-65
2021/03/28 02:56:20;;;;;;;5.73;2.03;;;7.90;99.90;;;;;;4994430;28;20433;-66
2021/03/28 02:59:15;;;;;;;4.93;2.03;;;7.90;99.90;;;;;;4993779;28;20442;-65
2021/03/28 03:02:02;;;;;;;3.40;1.83;;;7.90;99.90;;;;;;4993858;28;20492;-65
2021/03/28 03:04:59;;;;;;;8.60;2.80;;;7.70;99.90;;;;;;4993852;28;20449;-65
2021/03/28 03:07:40;;;;;;;7.67;2.83;;;7.80;99.90;;;;;;4993637;28;20461;-65
2021/03/28 03:10:42;;;;;;;5.40;1.83;;;7.80;99.90;;;;;;4993506;28;20485;-65
2021/03/28 03:13:16;;;;;;;2.80;2.17;;;7.90;99.90;;;;;;4995432;28;20442;-65
2021/03/28 03:15:49;;;;;;;3.97;3.40;;;7.80;99.90;;;;;;4997584;28;20831;-66
2021/03/28 03:18:53;;;;;;;4.10;2.33;;;7.70;99.90;;;;;;4997813;28;20441;-66
2021/03/28 03:21:58;;;;;;;5.90;3.00;;;7.70;99.90;;;;;;4997502;28;20507;-65
2021/03/28 03:24:53;;;;;;;3.30;2.47;;;7.50;99.90;;;;;;4988593;28;20516;-65
2021/03/28 03:27:51;;;;;;;5.07;2.17;;;7.50;99.90;;;;;;4997514;28;20453;-65
2021/03/28 03:30:42;;;;;;;8.80;2.47;;;7.50;99.90;;;;;;4997357;28;20884;-65
2021/03/28 03:33:39;;;;;;;4.20;2.30;;;7.50;99.90;;;;;;4996858;28;20445;-66
2021/03/28 03:36:22;;;;;;;9.00;3.70;;;7.50;99.90;;;;;;4997042;28;20912;-65
2021/03/28 03:39:14;;;;;;;4.83;2.50;;;7.50;99.90;;;;;;4997319;28;20442;-65
2021/03/28 03:42:14;;;;;;;5.07;2.03;;;7.50;99.90;;;;;;4994290;28;20851;-66
2021/03/28 03:45:27;;;;;;;6.10;2.70;;;7.50;99.90;;;;;;4965244;28;20952;-65
2021/03/28 03:48:04;;;;;;;4.07;1.77;;;7.50;99.90;;;;;;4936948;29;20455;-66
2021/03/28 03:50:50;;;;;;;4.00;2.23;;;7.50;99.90;;;;;;4936717;29;20543;-65
2021/03/28 03:53:26;;;;;;;3.53;2.40;;;7.50;99.90;;;;;;4981339;28;20947;-66
2021/03/28 03:56:04;;;;;;;6.27;3.20;;;7.50;99.90;;;;;;4997448;28;20941;-66
2021/03/28 03:58:36;;;;;;;3.97;2.30;;;7.60;99.90;;;;;;4998166;28;20438;-66
2021/03/28 04:01:18;;;;;;;3.60;2.30;;;7.60;99.90;;;;;;4997916;28;20469;-65
2021/03/28 04:03:55;;;;;;;5.67;2.20;;;7.60;99.90;;;;;;4997849;28;20912;-65
2021/03/28 04:06:46;;;;;;;5.97;1.80;;;7.50;99.90;;;;;;4997307;28;20442;-65
2021/03/28 04:09:26;;;;;;;6.27;2.30;;;7.50;99.90;;;;;;4996692;28;20449;-66
2021/03/28 04:12:12;;;;;;;4.40;2.07;;;7.50;99.90;;;;;;4996636;28;20520;-65
2021/03/28 04:15:05;;;;;;;4.63;1.90;;;7.50;99.90;;;;;;4996707;28;20446;-65
2021/03/28 04:18:07;;;;;;;4.37;2.00;;;7.50;99.90;;;;;;4997409;28;20438;-65
2021/03/28 04:20:44;;;;;;;8.57;2.20;;;7.50;99.90;;;;;;4997310;28;20477;-64
2021/03/28 04:23:35;;;;;;;2.90;2.30;;;7.30;99.90;;;;;;4996804;28;20465;-66
2021/03/28 04:26:14;;;;;;;7.47;2.27;;;7.20;99.90;;;;;;4996063;28;20453;-65
2021/03/28 04:28:50;;;;;;;6.10;2.50;;;7.30;99.90;;;;;;4996438;28;20444;-65
2021/03/28 04:31:54;;;;;;;7.57;2.53;;;7.30;99.90;;;;;;4996033;28;20851;-64
2021/03/28 04:34:25;;;;;;;3.63;1.77;;;7.30;99.90;;;;;;4996315;28;20457;-66
2021/03/28 04:37:10;;;;;;;11.20;2.47;;;7.20;99.90;;;;;;4996172;28;20434;-65
2021/03/28 04:39:57;;;;;;;3.60;2.77;;;7.10;99.90;;;;;;4996058;28;20445;-65
2021/03/28 04:42:55;;;;;;;7.03;2.57;;;7.10;99.90;;;;;;4996271;28;20462;-65
2021/03/28 04:45:52;;;;;;;5.23;2.10;;;7.00;99.90;;;;;;4995847;28;20442;-65
2021/03/28 04:48:45;;;;;;;4.20;2.73;;;6.80;99.90;;;;;;4996356;28;20434;-65
2021/03/28 04:51:26;;;;;;;3.77;1.90;;;6.80;99.90;;;;;;4996035;28;20470;-64
2021/03/28 04:54:25;;;;;;;7.97;2.10;;;6.80;99.90;;;;;;4996440;28;20533;-65
2021/03/28 04:57:19;;;;;;;3.30;2.53;;;6.70;99.90;;;;;;4995918;28;20434;-65
2021/03/28 05:00:19;;;;;;;2.70;1.70;;;6.70;99.90;;;;;;4985920;28;20465;-65
2021/03/28 05:03:26;;;;;;;8.37;2.33;;;6.70;99.90;;;;;;4993295;28;20477;-65
2021/03/28 05:06:00;;;;;;;6.50;2.30;;;6.70;99.90;;;;;;4995821;28;20438;-66
2021/03/28 05:08:54;;;;;;;4.50;2.03;;;6.70;99.90;;;;;;4995976;28;20448;-65
2021/03/28 05:11:57;;;;;;;4.40;2.57;;;6.60;99.90;;;;;;4995784;28;20995;-65
2021/03/28 05:14:59;;;;;;;3.93;2.00;;;6.60;99.90;;;;;;4995711;28;20446;-64
2021/03/28 05:18:07;;;;;;;7.03;2.50;;;6.50;99.90;;;;;;4995698;28;20504;-65
2021/03/28 05:21:12;;;;;;;8.13;1.90;;;6.50;99.90;;;;;;4995391;28;20474;-65
2021/03/28 05:24:27;;;;;;;5.53;2.77;;;6.60;99.90;;;;;;4970189;28;20450;-66
2021/03/28 05:27:28;;;;;;;6.67;2.00;;;6.60;99.90;;;;;;4995503;28;20476;-65
2021/03/28 05:30:29;;;;;;;4.50;2.40;;;6.70;99.90;;;;;;4995532;28;20461;-65
2021/03/28 05:33:27;;;;;;;5.97;2.60;;;6.70;99.90;;;;;;4981427;28;20446;-66
2021/03/28 05:36:09;;;;;;;4.80;2.03;;;6.80;99.90;;;;;;4995895;28;20474;-65
2021/03/28 05:39:08;;;;;;;4.67;2.80;;;6.80;99.90;;;;;;4995463;28;20850;-67
2021/03/28 05:42:08;;;;;;;4.83;2.17;;;6.80;99.90;;;;;;4995201;28;21051;-66
2021/03/28 05:45:04;;;;;;;6.80;2.53;;;6.90;99.90;;;;;;4994764;28;20449;-65
2021/03/28 05:47:43;;;;;;;5.77;2.03;;;6.80;99.90;;;;;;4994907;28;20497;-65
2021/03/28 05:50:24;;;;;;;3.50;2.50;;;6.80;99.90;;;;;;4994806;28;20477;-65
2021/03/28 05:53:15;;;;;;;7.27;2.20;;;6.90;99.90;;;;;;4994970;28;20457;-65
2021/03/28 05:56:12;;;;;;;8.33;2.80;;;7.00;99.90;;;;;;4995065;28;20453;-65
2021/03/28 05:58:59;;;;;;;4.73;2.20;;;7.00;99.90;;;;;;4994629;28;20446;-65
2021/03/28 06:01:49;;;;;;;5.83;2.47;;;7.00;99.90;;;;;;4994584;28;20492;-65
2021/03/28 06:05:06;;;;;;;3.70;2.50;;;7.00;99.90;;;;;;4994587;28;20435;-65
2021/03/28 06:08:08;;;;;;;3.90;2.50;;;7.00;99.90;;;;;;4994231;28;20802;-65
2021/03/28 06:11:17;;;;;;;8.03;2.90;;;7.00;99.90;;;;;;4994356;28;20481;-64
2021/03/28 06:14:19;;;;;;;5.17;2.40;;;6.90;99.90;;;;;;4994625;28;20438;-65
2021/03/28 06:17:14;;;;;;;8.95;3.10;;;6.90;99.90;;;;;;4993919;28;20839;-65
2021/03/28 06:20:19;;;;;;;7.60;3.17;;;6.90;99.90;;;;;;4994595;28;20183;-64
2021/03/28 06:23:14;;;;;;;8.07;2.77;;;7.20;99.90;;;;;;4994096;28;20995;-64
2021/03/28 06:26:16;;;;;;;4.77;2.67;;;7.90;99.90;;;;;;4994513;28;20442;-65
2021/03/28 06:29:13;;;;;;;6.93;2.70;;;8.40;99.90;;;;;;4994514;28;20444;-65
2021/03/28 06:32:08;;;;;;;2.50;2.20;;;8.30;99.90;;;;;;4994450;28;20474;-65
2021/03/28 06:35:22;;;;;;;8.27;3.90;;;8.70;99.90;;;;;;4993965;28;20905;-66
2021/03/28 06:38:22;;;;;;;3.53;2.50;;;9.30;99.90;;;;;;4933988;29;20448;-64
2021/03/28 06:41:05;;;;;;;7.07;2.97;;;9.70;99.90;;;;;;4993776;28;20476;-64
2021/03/28 06:44:00;;;;;;;5.37;3.00;;;10.40;99.90;;;;;;4993818;28;20928;-65
2021/03/28 06:47:06;;;;;;;4.37;2.90;;;10.80;99.00;;;;;;4994412;28;20430;-65
2021/03/28 06:49:50;;;;;;;4.83;2.70;;;11.40;97.30;;;;;;4998028;28;20944;-64
2021/03/28 06:52:26;;;;;;;4.80;3.20;;;12.10;95.10;;;;;;4998208;28;20426;-64
2021/03/28 06:55:34;;;;;;;4.20;3.03;;;12.60;94.10;;;;;;4998106;28;20461;-64
2021/03/28 06:58:47;;;;;;;8.30;3.57;;;13.00;92.10;;;;;;4998185;28;20441;-65
2021/03/28 07:01:46;;;;;;;5.60;2.90;;;13.30;90.60;;;;;;4995328;28;20474;-64
2021/03/28 07:04:59;;;;;;;4.23;2.80;;;13.60;90.60;;;;;;4999953;28;20445;-64
2021/03/28 07:07:56;;;;;;;6.60;4.43;;;13.70;88.40;;;;;;4937736;29;20449;-64
2021/03/28 07:10:40;;;;;;;6.90;3.30;;;13.80;88.40;;;;;;4937679;29;20522;-64
2021/03/28 07:13:30;;;;;;;4.20;2.97;;;14.10;85.70;;;;;;4985045;28;20449;-65
2021/03/28 07:16:16;;;;;;;6.30;3.20;;;14.00;85.90;;;;;;5003684;28;20490;-66
2021/03/28 07:19:18;;;;;;;7.73;3.33;;;13.50;87.50;;;;;;5002042;28;20487;-65
2021/03/28 07:22:11;;;;;;;7.83;3.17;;;13.10;89.10;;;;;;4997823;28;20481;-64
2021/03/28 07:25:15;;;;;;;3.07;2.70;;;12.50;90.10;;;;;;4995094;28;20457;-65
2021/03/28 07:28:15;;;;;;;9.53;3.50;;;12.60;94.50;;;;;;4997849;28;20453;-65
2021/03/28 07:31:11;;;;;;;4.57;2.70;;;12.80;96.20;;;;;;4998449;28;20476;-65
2021/03/28 07:34:01;;;;;;;3.67;3.37;;;13.50;94.40;;;;;;4998223;28;20438;-65
2021/03/28 07:37:09;;;;;;;3.37;2.90;;;13.60;88.30;;;;;;4998221;28;20438;-66
2021/03/28 07:40:06;;;;;;;5.50;3.50;;;13.90;86.20;;;;;;4978009;28;20991;-66
2021/03/28 07:43:02;;;;;;;6.70;3.00;;;14.20;88.80;;;;;;4995265;28;20812;-65
2021/03/28 07:45:54;;;;;;;4.07;3.30;;;14.40;84.10;;;;;;4998025;28;20437;-66
2021/03/28 07:48:54;;;;;;;9.90;3.80;;;14.80;86.80;;;;;;4997768;28;20774;-64
2021/03/28 07:51:58;;;;;;;6.07;3.30;;;15.30;82.20;;;;;;4997331;28;20481;-65
2021/03/28 07:54:54;;;;;;;4.73;3.07;;;15.70;85.30;;;;;;4997363;28;20455;-65
2021/03/28 07:57:38;;;;;;;6.17;3.10;;;16.10;83.10;;;;;;4997108;28;20904;-65
2021/03/28 08:00:32;;;;;;;7.73;4.30;;;15.80;82.80;;;;;;4996972;28;20480;-66
2021/03/28 08:03:22;;;;;;;8.10;3.87;;;15.10;83.00;;;;;;4997377;28;20465;-65
2021/03/28 08:06:13;;;;;;;5.17;3.20;;;15.00;81.50;;;;;;4997771;28;20442;-66
2021/03/28 08:09:03;;;;;;;3.90;3.07;;;15.00;81.50;;;;;;4997184;28;20445;-65
2021/03/28 08:11:43;;;;;;;5.97;3.37;;;14.70;83.00;;;;;;4996612;28;20482;-65
2021/03/28 08:14:42;;;;;;;6.67;3.03;;;15.00;81.20;;;;;;4997140;28;20492;-66
2021/03/28 08:17:41;;;;;;;8.03;3.67;;;15.20;81.10;;;;;;4971802;28;20449;-66
2021/03/28 08:20:35;;;;;;;3.90;2.70;;;15.30;81.10;;;;;;4996637;28;20823;-65
2021/03/28 08:23:37;;;;;;;7.53;3.07;;;15.30;80.00;;;;;;4997145;28;20473;-65
2021/03/28 08:26:41;;;;;;;6.37;3.70;;;15.40;77.80;;;;;;4991647;28;20465;-65
2021/03/28 08:29:31;;;;;;;4.33;2.60;;;15.80;75.90;;;;;;4996756;28;20492;-66
2021/03/28 08:32:10;;;;;;;4.43;3.07;;;15.50;76.30;;;;;;4996585;28;20474;-65
2021/03/28 08:35:15;;;;;;;4.93;2.97;;;16.50;75.40;;;;;;4997750;28;20434;-65
2021/03/28 08:37:57;;;;;;;4.87;2.93;;;17.20;72.90;;;;;;4982571;28;20469;-63
2021/03/28 08:40:39;;;;;;;6.93;3.30;;;17.60;80.50;;;;;;4996127;28;20481;-64
2021/03/28 08:44:09;;;;;;;5.87;2.63;;;17.90;80.20;;;;;;4996768;28;20461;-63
2021/03/28 08:47:04;;;;;;;4.77;3.33;;;18.80;73.30;;;;;;4961177;28;20457;-65
2021/03/28 08:49:40;;;;;;;7.10;2.87;;;19.80;73.10;;;;;;4996281;28;20936;-66
2021/03/28 08:52:42;;;;;;;6.87;3.00;;;20.80;69.30;;;;;;4996901;28;20484;-67
2021/03/28 08:55:24;;;;;;;4.03;2.50;;;20.90;66.90;;;;;;4997140;28;20441;-66
2021/03/28 08:58:02;;;;;;;7.70;3.43;;;21.40;59.20;;;;;;4996598;28;20438;-67
2021/03/28 09:00:40;;;;;;;5.43;2.93;;;21.70;57.90;;;;;;4996554;28;20523;-65
2021/03/28 09:03:46;;;;;;;8.40;4.33;;;22.30;59.80;;;;;;4996132;28;20987;-65
2021/03/28 09:06:18;;;;;;;6.73;2.57;;;22.50;58.50;;;;;;4996153;28;20437;-65
2021/03/28 09:08:57;;;;;;;8.10;2.60;;;23.10;56.40;;;;;;4995887;28;20438;-65
2021/03/28 09:11:44;;;;;;;5.13;2.60;;;23.80;56.00;;;;;;4994904;28;20492;-63
2021/03/28 09:14:26;;;;;;;8.37;3.57;;;23.50;51.60;;;;;;4996536;28;20442;-63
2021/03/28 09:17:02;;;;;;;4.27;2.37;;;23.80;51.70;;;;;;4996267;28;20442;-64
2021/03/28 09:20:01;;;;;;;4.73;2.53;;;24.00;50.30;;;;;;4996261;28;20476;-63
2021/03/28 09:22:33;;;;;;;7.60;1.90;;;23.10;51.20;;;;;;4996230;28;20485;-64
2021/03/28 09:25:09;;;;;;;6.60;2.40;;;22.70;54.10;;;;;;4996118;28;20449;-64
2021/03/28 09:27:42;;;;;;;12.27;7.37;;;24.10;52.10;;;;;;4995499;28;20438;-64
2021/03/28 09:30:22;;;;;;;9.77;5.60;;;25.40;50.00;;;;;;4996287;28;20477;-64
2021/03/28 09:33:13;;;;;;;6.70;4.53;;;24.90;47.70;;;;;;4995848;28;20445;-63
2021/03/28 09:36:11;;;;;;;8.03;3.67;;;25.00;47.40;;;;;;4995789;28;20508;-64
2021/03/28 09:39:26;;;;;;;10.00;2.90;;;23.90;47.70;;;;;;4995703;28;20434;-64
2021/03/28 09:42:28;;;;;;;3.77;3.30;;;23.20;49.70;;;;;;4995591;28;20489;-65
2021/03/28 09:45:31;;;;;;;4.87;2.50;;;24.50;46.80;;;;;;4995660;28;20504;-66
2021/03/28 09:48:19;;;;;;;4.17;2.27;;;24.20;46.90;;;;;;4995283;28;20913;-66
2021/03/28 09:50:59;;;;;;;5.63;2.73;;;24.60;48.10;;;;;;4995364;28;20833;-66
2021/03/28 09:53:42;;;;;;;6.20;2.90;;;25.70;47.30;;;;;;4996984;28;20442;-65
2021/03/28 09:57:03;;;;;;;6.90;2.50;;;25.70;43.30;;;;;;4996763;28;20445;-66
2021/03/28 09:59:41;;;;;;;3.97;2.33;;;24.90;43.80;;;;;;4931577;29;20492;-65
2021/03/28 10:02:40;;;;;;;6.83;4.80;;;24.60;44.60;;;;;;4935963;29;20475;-65
2021/03/28 10:05:17;;;;;;;4.03;3.30;;;24.30;46.60;;;;;;4990543;28;20457;-66
2021/03/28 10:07:51;;;;;;;2.87;1.87;;;24.40;46.60;;;;;;4996918;28;20442;-66
2021/03/28 10:10:25;;;;;;;3.00;1.60;;;23.40;41.60;;;;;;4995808;28;20564;-67
2021/03/28 10:12:58;;;;;;;3.50;1.73;;;23.50;41.60;;;;;;4996103;28;20440;-66
2021/03/28 10:15:25;;;;;;;4.50;1.80;;;24.00;43.40;;;;;;4996256;28;20438;-65
2021/03/28 10:18:02;;;;;;;5.07;1.90;;;24.10;43.30;;;;;;4995557;28;20945;-65
2021/03/28 10:20:59;;;;;;;2.50;1.70;;;23.70;40.50;;;;;;4996039;28;20477;-66
2021/03/28 10:23:45;;;;;;;1.83;1.40;;;24.00;43.70;;;;;;4995998;28;20466;-65
2021/03/28 10:26:30;;;;;;;4.00;2.53;;;23.60;43.50;;;;;;4996538;28;20442;-65
2021/03/28 10:29:18;;;;;;;1.93;1.50;;;22.90;44.00;;;;;;4995919;28;20438;-64
2021/03/28 10:32:00;;;;;;;2.37;1.90;;;22.80;42.80;;;;;;4995640;28;20480;-64
2021/03/28 10:35:03;;;;;;;2.53;1.70;;;22.70;43.20;;;;;;4998058;28;20442;-64
2021/03/28 10:37:46;;;;;;;3.20;1.60;;;23.40;40.70;;;;;;4997044;28;20468;-66
2021/03/28 10:40:28;;;;;;;4.30;1.80;;;23.80;41.20;;;;;;4996064;28;20512;-65
2021/03/28 10:43:05;;;;;;;3.40;1.90;;;22.70;39.60;;;;;;4995768;28;20495;-65
2021/03/28 10:45:40;;;;;;;8.13;2.60;;;23.50;42.70;;;;;;4995687;28;20441;-65
2021/03/28 10:48:50;;;;;;;2.50;1.83;;;24.20;42.50;;;;;;4995301;28;20924;-65
2021/03/28 10:51:58;;;;;;;3.97;1.87;;;24.20;39.20;;;;;;4995776;28;20485;-65
2021/03/28 10:55:00;;;;;;;2.90;1.80;;;25.10;40.00;;;;;;4941178;28;20440;-66
2021/03/28 10:58:00;;;;;;;2.93;2.00;;;25.10;38.60;;;;;;4965734;28;20456;-65
2021/03/28 11:01:08;;;;;;;4.63;2.03;;;23.30;38.90;;;;;;4997101;28;20478;-65
2021/03/28 11:04:22;;;;;;;4.30;1.40;;;22.40;41.20;;;;;;4997621;28;20472;-65
2021/03/28 11:07:07;;;;;;;2.80;1.97;;;22.80;42.20;;;;;;4997575;28;20445;-65
2021/03/28 11:10:20;;;;;;;2.33;1.80;;;22.30;41.30;;;;;;4997392;28;20438;-64
2021/03/28 11:13:08;;;;;;;3.50;2.20;;;21.60;42.00;;;;;;4979648;28;20465;-64
2021/03/28 11:15:56;;;;;;;2.47;2.27;;;21.50;41.70;;;;;;4997310;28;20453;-65
2021/03/28 11:18:58;;;;;;;2.00;1.80;;;21.00;44.80;;;;;;4997819;28;20496;-64
2021/03/28 11:21:34;;;;;;;3.77;2.43;;;20.50;44.00;;;;;;4995871;28;20468;-65
2021/03/28 11:24:17;;;;;;;4.67;2.20;;;20.20;42.70;;;;;;4995825;28;20440;-65
2021/03/28 11:27:08;;;;;;;6.30;2.20;;;20.00;43.50;;;;;;4995416;28;20442;-66
2021/03/28 11:30:19;;;;;;;3.67;2.50;;;19.70;44.90;;;;;;4995670;28;20442;-65
2021/03/28 11:32:58;;;;;;;3.73;2.20;;;19.30;44.50;;;;;;4993895;28;20449;-65
2021/03/28 11:35:29;;;;;;;3.37;1.77;;;19.60;45.70;;;;;;4999999;28;20484;-65
2021/03/28 11:38:11;;;;;;;3.83;2.33;;;19.30;46.70;;;;;;4998837;28;20512;-65
2021/03/28 11:40:40;;;;;;;1.73;1.63;;;19.00;46.00;;;;;;4998097;28;20477;-64
2021/03/28 11:43:25;;;;;;;4.67;2.07;;;18.90;45.70;;;;;;4998466;28;20544;-66
2021/03/28 11:46:20;;;;;;;4.20;2.30;;;18.90;46.20;;;;;;4998821;28;20449;-65
2021/03/28 11:49:04;;;;;;;7.33;2.63;;;18.80;51.50;;;;;;4998811;28;20461;-64
2021/03/28 11:51:41;;;;;;;4.00;2.40;;;19.00;47.90;;;;;;4998615;28;20481;-66
2021/03/28 11:54:17;;;;;;;2.90;2.30;;;19.00;49.60;;;;;;4998555;28;20913;-66
2021/03/28 11:56:48;;;;;;;4.67;2.30;;;19.10;47.20;;;;;;4999092;28;20437;-65
2021/03/28 11:59:34;;;;;;;3.23;1.93;;;19.20;48.00;;;;;;4998545;28;20495;-66
2021/03/28 12:02:25;;;;;;;5.60;2.20;;;19.00;48.30;;;;;;4998448;28;20485;-66
2021/03/28 12:05:31;;;;;;;3.50;2.17;;;18.80;48.40;;;;;;4998697;28;20438;-67
2021/03/28 12:08:18;;;;;;;4.57;2.37;;;19.10;51.40;;;;;;4998327;28;20449;-66
2021/03/28 12:10:45;;;;;;;3.30;2.10;;;19.00;50.50;;;;;;4993703;28;20478;-65
2021/03/28 12:13:29;;;;;;;2.57;1.93;;;19.10;48.30;;;;;;4997810;28;20501;-66
2021/03/28 12:16:02;;;;;;;3.27;2.40;;;19.00;46.90;;;;;;4998026;28;20916;-66
2021/03/28 12:18:56;;;;;;;3.97;2.07;;;19.10;47.20;;;;;;4998131;28;20449;-65
2021/03/28 12:21:49;;;;;;;6.53;2.07;;;18.90;49.70;;;;;;4998656;28;20473;-65
2021/03/28 12:24:23;;;;;;;2.10;1.90;;;18.90;49.20;;;;;;4998345;28;20446;-65
2021/03/28 12:26:54;;;;;;;6.93;2.20;;;19.00;50.40;;;;;;4997951;28;20430;-66
2021/03/28 12:29:47;;;;;;;5.33;2.13;;;19.20;47.60;;;;;;4997889;28;20492;-65
2021/03/28 12:32:50;;;;;;;3.13;2.17;;;19.20;48.70;;;;;;4997320;28;20434;-65
2021/03/28 12:35:30;;;;;;;5.57;2.40;;;19.20;50.40;;;;;;4997560;28;20445;-66
2021/03/28 12:37:57;;;;;;;4.83;2.00;;;19.20;49.90;;;;;;4997655;28;20939;-66
2021/03/28 12:40:37;;;;;;;3.20;1.70;;;19.20;49.10;;;;;;4997554;28;20480;-65
2021/03/28 12:43:18;;;;;;;5.67;2.13;;;19.20;50.00;;;;;;4997577;28;20472;-67
2021/03/28 12:45:45;;;;;;;4.00;2.53;;;19.10;48.50;;;;;;4996068;28;20815;-66
2021/03/28 12:48:35;;;;;;;4.93;1.50;;;19.40;48.70;;;;;;4997361;28;20453;-66
2021/03/28 12:51:02;;;;;;;3.93;2.00;;;19.50;48.50;;;;;;4997328;28;20469;-65
2021/03/28 12:53:33;;;;;;;4.50;2.10;;;19.80;52.20;;;;;;4997544;28;20438;-66
2021/03/28 12:56:00;;;;;;;2.93;1.70;;;19.80;48.80;;;;;;4997489;28;20434;-66
2021/03/28 12:58:36;;;;;;;3.20;2.20;;;19.90;49.00;;;;;;4997286;28;20453;-68
2021/03/28 13:01:04;;;;;;;5.27;2.70;;;20.00;50.90;;;;;;4997315;28;20474;-68
2021/03/28 13:03:35;;;;;;;4.10;1.80;;;19.90;52.50;;;;;;4997423;28;20560;-69
2021/03/28 13:06:23;;;;;;;3.97;2.40;;;19.70;51.50;;;;;;5001333;28;20518;-69
2021/03/28 13:08:54;;;;;;;3.83;2.17;;;20.10;52.80;;;;;;4997225;28;20442;-68
2021/03/28 13:11:37;;;;;;;4.00;2.33;;;20.50;52.10;;;;;;4997388;28;20988;-68
2021/03/28 13:14:06;;;;;;;3.70;2.20;;;20.00;47.40;;;;;;4999576;28;20436;-68
2021/03/28 13:16:36;;;;;;;4.50;2.30;;;19.50;48.90;;;;;;4999310;28;20826;-68
2021/03/28 13:19:03;;;;;;;2.93;2.23;;;19.40;48.20;;;;;;4996923;28;20465;-68
2021/03/28 13:21:33;;;;;;;6.10;2.70;;;19.30;49.60;;;;;;4996394;28;21046;-68
2021/03/28 13:24:05;;;;;;;4.53;2.23;;;19.30;50.30;;;;;;4996694;28;20466;-69
2021/03/28 13:26:33;;;;;;;2.37;1.63;;;19.60;51.30;;;;;;4996386;28;20438;-68
2021/03/28 13:29:06;;;;;;;4.50;2.13;;;19.60;49.00;;;;;;4995929;28;20454;-66
2021/03/28 13:31:37;;;;;;;3.23;2.03;;;19.30;49.10;;;;;;4996096;28;20512;-67
2021/03/28 13:34:19;;;;;;;4.80;2.07;;;19.50;48.90;;;;;;4996040;28;20434;-67
2021/03/28 13:37:06;;;;;;;2.00;1.80;;;19.70;49.70;;;;;;4996080;28;20445;-67
2021/03/28 13:39:36;;;;;;;2.80;1.90;;;19.60;49.40;;;;;;4995582;28;20944;-66
2021/03/28 13:42:20;;;;;;;2.30;1.67;;;19.90;51.70;;;;;;4995772;28;20846;-67
2021/03/28 13:44:59;;;;;;;5.93;2.17;;;20.10;49.90;;;;;;4994766;28;20504;-68
2021/03/28 13:47:44;;;;;;;4.07;2.40;;;20.30;52.10;;;;;;4995802;28;20770;-67
2021/03/28 13:50:45;;;;;;;4.30;1.87;;;20.70;49.90;;;;;;4995778;28;20477;-67
2021/03/28 13:53:26;;;;;;;3.40;2.00;;;20.60;48.40;;;;;;4995686;28;20441;-67
2021/03/28 13:56:26;;;;;;;3.73;2.00;;;20.40;50.20;;;;;;4995133;28;20853;-67
2021/03/28 13:59:08;;;;;;;5.50;2.00;;;20.50;47.30;;;;;;4995280;28;20458;-66
2021/03/28 14:01:49;;;;;;;5.13;2.60;;;20.20;48.70;;;;;;4995153;28;20525;-67
2021/03/28 14:04:35;;;;;;;2.97;1.93;;;20.30;48.60;;;;;;4995390;28;20445;-67
2021/03/28 14:07:18;;;;;;;3.60;1.90;;;20.20;49.00;;;;;;4995155;28;20469;-67
2021/03/28 14:09:50;;;;;;;6.43;2.67;;;20.30;49.00;;;;;;4995269;28;20445;-66
2021/03/28 14:12:35;;;;;;;2.10;1.90;;;20.40;49.20;;;;;;4995040;28;20803;-67
2021/03/28 14:15:08;;;;;;;2.90;1.83;;;20.50;50.20;;;;;;4995621;28;20442;-67
2021/03/28 14:17:36;;;;;;;2.30;1.57;;;20.70;49.30;;;;;;4996150;28;20437;-67
2021/03/28 14:20:14;;;;;;;4.00;1.73;;;20.60;47.80;;;;;;4995250;28;20477;-66
2021/03/28 14:22:45;;;;;;;1.93;1.53;;;20.10;48.50;;;;;;4995272;28;20497;-67
2021/03/28 14:25:26;;;;;;;3.97;2.00;;;20.50;49.20;;;;;;4995624;28;20438;-67
2021/03/28 14:27:53;;;;;;;4.00;2.70;;;20.50;50.10;;;;;;4995115;28;20449;-66
2021/03/28 14:30:23;;;;;;;1.83;1.63;;;20.80;49.80;;;;;;4994859;28;20528;-68